sensor_id;sensor_type;location;lat;lon;timestamp;P1;P2;P0
57049;PMS7003;42935;50.966;16.992;2023-06-10T00:00:20;23;21;15
57049;PMS7003;42935;50.966;16.992;2023-06-10T00:03:36;24;20;14
57049;PMS7003;42935;50.966;16.992;2023-06-10T00:06:53;21;20;14
57049;PMS7003;42935;50.966;16.992;2023-06-10T00:10:09;24;23;16
57049;PMS7003;42935;50.966;16.992;2023-06-10T00:13:24;25;20;15
57049;PMS7003;42935;50.966;16.992;2023-06-10T00:16:39;29;24;16
57049;PMS7003;42935;50.966;16.992;2023-06-10T00:19:58;27;24;17
57049;PMS7003;42935;50.966;16.992;2023-06-10T00:23:18;33;27;18
57049;PMS7003;42935;50.966;16.992;2023-06-10T00:26:33;27;23;16
57049;PMS7003;42935;50.966;16.992;2023-06-10T00:29:48;29;23;17
57049;PMS7003;42935;50.966;16.992;2023-06-10T00:33:13;26;25;17
57049;PMS7003;42935;50.966;16.992;2023-06-10T00:36:30;29;26;17
57049;PMS7003;42935;50.966;16.992;2023-06-10T00:39:48;31;28;20
57049;PMS7003;42935;50.966;16.992;2023-06-10T00:43:05;31;28;18
57049;PMS7003;42935;50.966;16.992;2023-06-10T00:46:23;33;29;20
57049;PMS7003;42935;50.966;16.992;2023-06-10T00:49:46;31;28;19
57049;PMS7003;42935;50.966;16.992;2023-06-10T00:53:07;39;32;21
57049;PMS7003;42935;50.966;16.992;2023-06-10T00:56:25;40;31;21
57049;PMS7003;42935;50.966;16.992;2023-06-10T00:59:45;34;29;20
57049;PMS7003;42935;50.966;16.992;2023-06-10T01:03:09;33;31;22
57049;PMS7003;42935;50.966;16.992;2023-06-10T01:13:40;41;35;22
57049;PMS7003;42935;50.966;16.992;2023-06-10T01:17:06;41;33;21
57049;PMS7003;42935;50.966;16.992;2023-06-10T01:20:30;38;32;22
57049;PMS7003;42935;50.966;16.992;2023-06-10T01:23:48;35;31;20
57049;PMS7003;42935;50.966;16.992;2023-06-10T01:27:05;42;33;22
57049;PMS7003;42935;50.966;16.992;2023-06-10T01:30:27;36;29;20
57049;PMS7003;42935;50.966;16.992;2023-06-10T01:33:52;45;36;22
57049;PMS7003;42935;50.966;16.992;2023-06-10T01:37:07;41;33;22
57049;PMS7003;42935;50.966;16.992;2023-06-10T01:40:30;44;35;21
57049;PMS7003;42935;50.966;16.992;2023-06-10T01:44:23;42;33;21
57049;PMS7003;42935;50.966;16.992;2023-06-10T01:47:41;41;34;22
57049;PMS7003;42935;50.966;16.992;2023-06-10T01:51:05;41;35;21
57049;PMS7003;42935;50.966;16.992;2023-06-10T01:54:26;43;35;22
57049;PMS7003;42935;50.966;16.992;2023-06-10T01:57:51;41;34;22
57049;PMS7003;42935;50.966;16.992;2023-06-10T02:01:12;35;31;20
57049;PMS7003;42935;50.966;16.992;2023-06-10T02:04:31;37;31;19
57049;PMS7003;42935;50.966;16.992;2023-06-10T02:07:52;36;30;20
57049;PMS7003;42935;50.966;16.992;2023-06-10T02:11:14;36;31;20
57049;PMS7003;42935;50.966;16.992;2023-06-10T02:14:32;30;28;19
57049;PMS7003;42935;50.966;16.992;2023-06-10T02:17:59;40;31;20
57049;PMS7003;42935;50.966;16.992;2023-06-10T02:21:15;31;29;19
57049;PMS7003;42935;50.966;16.992;2023-06-10T02:24:44;37;30;20
57049;PMS7003;42935;50.966;16.992;2023-06-10T02:28:01;33;29;18
57049;PMS7003;42935;50.966;16.992;2023-06-10T02:31:23;31;26;18
57049;PMS7003;42935;50.966;16.992;2023-06-10T02:34:41;38;31;19
57049;PMS7003;42935;50.966;16.992;2023-06-10T02:38:01;35;30;20
57049;PMS7003;42935;50.966;16.992;2023-06-10T02:41:19;34;29;19
57049;PMS7003;42935;50.966;16.992;2023-06-10T02:44:34;33;30;20
57049;PMS7003;42935;50.966;16.992;2023-06-10T02:47:59;32;28;18
57049;PMS7003;42935;50.966;16.992;2023-06-10T02:51:20;34;30;20
57049;PMS7003;42935;50.966;16.992;2023-06-10T02:54:35;38;32;20
57049;PMS7003;42935;50.966;16.992;2023-06-10T02:57:56;33;28;19
57049;PMS7003;42935;50.966;16.992;2023-06-10T03:01:17;30;27;19
57049;PMS7003;42935;50.966;16.992;2023-06-10T03:04:35;33;28;19
57049;PMS7003;42935;50.966;16.992;2023-06-10T03:07:59;34;30;19
57049;PMS7003;42935;50.966;16.992;2023-06-10T03:11:12;31;28;19
57049;PMS7003;42935;50.966;16.992;2023-06-10T03:14:27;30;26;19
57049;PMS7003;42935;50.966;16.992;2023-06-10T03:17:44;33;28;19
57049;PMS7003;42935;50.966;16.992;2023-06-10T03:20:59;36;28;19
57049;PMS7003;42935;50.966;16.992;2023-06-10T03:24:17;27;27;19
57049;PMS7003;42935;50.966;16.992;2023-06-10T03:27:41;33;30;20
57049;PMS7003;42935;50.966;16.992;2023-06-10T03:30:59;31;27;17
57049;PMS7003;42935;50.966;16.992;2023-06-10T03:34:17;32;28;19
57049;PMS7003;42935;50.966;16.992;2023-06-10T03:37:32;34;29;18
57049;PMS7003;42935;50.966;16.992;2023-06-10T03:40:57;35;31;19
57049;PMS7003;42935;50.966;16.992;2023-06-10T03:44:21;32;28;18
57049;PMS7003;42935;50.966;16.992;2023-06-10T03:47:38;29;25;18
57049;PMS7003;42935;50.966;16.992;2023-06-10T03:50:57;30;28;18
57049;PMS7003;42935;50.966;16.992;2023-06-10T03:54:12;32;27;19
57049;PMS7003;42935;50.966;16.992;2023-06-10T03:57:29;31;25;17
57049;PMS7003;42935;50.966;16.992;2023-06-10T04:00:46;30;27;18
57049;PMS7003;42935;50.966;16.992;2023-06-10T04:04:02;33;29;19
57049;PMS7003;42935;50.966;16.992;2023-06-10T04:07:21;30;28;19
57049;PMS7003;42935;50.966;16.992;2023-06-10T04:10:43;34;28;19
57049;PMS7003;42935;50.966;16.992;2023-06-10T04:14:08;34;28;18
57049;PMS7003;42935;50.966;16.992;2023-06-10T04:17:26;34;29;19
57049;PMS7003;42935;50.966;16.992;2023-06-10T04:20:39;28;25;17
57049;PMS7003;42935;50.966;16.992;2023-06-10T04:23:56;34;30;19
57049;PMS7003;42935;50.966;16.992;2023-06-10T04:27:13;30;25;18
57049;PMS7003;42935;50.966;16.992;2023-06-10T04:30:36;30;28;19
57049;PMS7003;42935;50.966;16.992;2023-06-10T04:33:57;31;28;19
57049;PMS7003;42935;50.966;16.992;2023-06-10T04:37:20;31;29;19
57049;PMS7003;42935;50.966;16.992;2023-06-10T04:40:38;32;28;19
57049;PMS7003;42935;50.966;16.992;2023-06-10T04:43:59;32;28;20
57049;PMS7003;42935;50.966;16.992;2023-06-10T04:47:14;34;30;20
57049;PMS7003;42935;50.966;16.992;2023-06-10T04:50:36;34;29;19
57049;PMS7003;42935;50.966;16.992;2023-06-10T04:54:02;33;30;20
57049;PMS7003;42935;50.966;16.992;2023-06-10T04:57:24;38;30;21
57049;PMS7003;42935;50.966;16.992;2023-06-10T05:00:47;34;29;19
57049;PMS7003;42935;50.966;16.992;2023-06-10T05:04:04;39;33;22
57049;PMS7003;42935;50.966;16.992;2023-06-10T05:07:25;35;31;22
57049;PMS7003;42935;50.966;16.992;2023-06-10T05:10:46;32;28;17
57049;PMS7003;42935;50.966;16.992;2023-06-10T05:14:03;35;30;22
57049;PMS7003;42935;50.966;16.992;2023-06-10T05:17:24;38;31;22
57049;PMS7003;42935;50.966;16.992;2023-06-10T05:20:45;40;32;21
57049;PMS7003;42935;50.966;16.992;2023-06-10T05:24:10;35;32;22
57049;PMS7003;42935;50.966;16.992;2023-06-10T05:27:29;40;33;21
57049;PMS7003;42935;50.966;16.992;2023-06-10T05:30:50;41;34;22
57049;PMS7003;42935;50.966;16.992;2023-06-10T05:34:11;40;34;23
57049;PMS7003;42935;50.966;16.992;2023-06-10T05:37:30;37;31;21
57049;PMS7003;42935;50.966;16.992;2023-06-10T05:40:53;39;33;22
57049;PMS7003;42935;50.966;16.992;2023-06-10T05:44:17;41;34;22
57049;PMS7003;42935;50.966;16.992;2023-06-10T05:47:34;39;33;22
57049;PMS7003;42935;50.966;16.992;2023-06-10T05:51:00;36;32;22
57049;PMS7003;42935;50.966;16.992;2023-06-10T05:54:26;42;34;22
57049;PMS7003;42935;50.966;16.992;2023-06-10T05:57:44;39;33;22
57049;PMS7003;42935;50.966;16.992;2023-06-10T06:01:03;42;35;23
57049;PMS7003;42935;50.966;16.992;2023-06-10T06:04:24;41;34;22
57049;PMS7003;42935;50.966;16.992;2023-06-10T06:07:45;41;34;23
57049;PMS7003;42935;50.966;16.992;2023-06-10T06:11:02;45;37;25
57049;PMS7003;42935;50.966;16.992;2023-06-10T06:14:19;45;38;25
57049;PMS7003;42935;50.966;16.992;2023-06-10T06:17:40;43;34;22
57049;PMS7003;42935;50.966;16.992;2023-06-10T06:21:01;46;37;24
57049;PMS7003;42935;50.966;16.992;2023-06-10T06:24:18;46;36;23
57049;PMS7003;42935;50.966;16.992;2023-06-10T06:27:35;44;37;25
57049;PMS7003;42935;50.966;16.992;2023-06-10T06:30:52;42;36;25
57049;PMS7003;42935;50.966;16.992;2023-06-10T06:34:15;46;39;26
57049;PMS7003;42935;50.966;16.992;2023-06-10T06:37:32;43;37;25
57049;PMS7003;42935;50.966;16.992;2023-06-10T06:40:50;45;38;25
57049;PMS7003;42935;50.966;16.992;2023-06-10T06:44:08;45;36;24
57049;PMS7003;42935;50.966;16.992;2023-06-10T06:47:25;44;36;26
57049;PMS7003;42935;50.966;16.992;2023-06-10T06:50:51;48;40;26
57049;PMS7003;42935;50.966;16.992;2023-06-10T06:54:10;51;39;26
57049;PMS7003;42935;50.966;16.992;2023-06-10T06:57:35;49;41;26
57049;PMS7003;42935;50.966;16.992;2023-06-10T07:00:54;41;36;24
57049;PMS7003;42935;50.966;16.992;2023-06-10T07:04:19;48;39;26
57049;PMS7003;42935;50.966;16.992;2023-06-10T07:07:40;46;39;26
57049;PMS7003;42935;50.966;16.992;2023-06-10T07:10:57;48;39;25
57049;PMS7003;42935;50.966;16.992;2023-06-10T07:14:22;45;37;26
57049;PMS7003;42935;50.966;16.992;2023-06-10T07:17:44;48;40;27
57049;PMS7003;42935;50.966;16.992;2023-06-10T07:21:05;45;38;25
57049;PMS7003;42935;50.966;16.992;2023-06-10T07:24:22;45;36;25
57049;PMS7003;42935;50.966;16.992;2023-06-10T07:27:39;41;34;23
57049;PMS7003;42935;50.966;16.992;2023-06-10T07:30:56;43;37;25
57049;PMS7003;42935;50.966;16.992;2023-06-10T07:34:17;46;37;25
57049;PMS7003;42935;50.966;16.992;2023-06-10T07:37:38;42;36;24
57049;PMS7003;42935;50.966;16.992;2023-06-10T07:41:02;45;37;25
57049;PMS7003;42935;50.966;16.992;2023-06-10T07:44:23;45;36;24
57049;PMS7003;42935;50.966;16.992;2023-06-10T07:47:40;40;34;24
57049;PMS7003;42935;50.966;16.992;2023-06-10T07:51:02;41;35;23
57049;PMS7003;42935;50.966;16.992;2023-06-10T07:54:15;40;34;24
57049;PMS7003;42935;50.966;16.992;2023-06-10T07:57:36;45;37;24
57049;PMS7003;42935;50.966;16.992;2023-06-10T08:01:02;48;36;23
57049;PMS7003;42935;50.966;16.992;2023-06-10T08:04:25;42;35;23
57049;PMS7003;42935;50.966;16.992;2023-06-10T08:07:42;41;34;24
57049;PMS7003;42935;50.966;16.992;2023-06-10T08:11:04;42;34;25
57049;PMS7003;42935;50.966;16.992;2023-06-10T08:14:25;40;34;23
57049;PMS7003;42935;50.966;16.992;2023-06-10T08:17:48;42;34;23
57049;PMS7003;42935;50.966;16.992;2023-06-10T08:21:10;41;34;24
57049;PMS7003;42935;50.966;16.992;2023-06-10T08:24:27;44;35;23
57049;PMS7003;42935;50.966;16.992;2023-06-10T08:27:45;41;33;22
57049;PMS7003;42935;50.966;16.992;2023-06-10T08:31:02;44;36;24
57049;PMS7003;42935;50.966;16.992;2023-06-10T08:34:19;41;34;23
57049;PMS7003;42935;50.966;16.992;2023-06-10T08:37:36;39;32;23
57049;PMS7003;42935;50.966;16.992;2023-06-10T08:40:59;37;31;21
57049;PMS7003;42935;50.966;16.992;2023-06-10T08:47:45;36;32;23
57049;PMS7003;42935;50.966;16.992;2023-06-10T08:51:11;38;33;22
57049;PMS7003;42935;50.966;16.992;2023-06-10T08:54:28;34;29;21
57049;PMS7003;42935;50.966;16.992;2023-06-10T08:57:50;39;31;21
57049;PMS7003;42935;50.966;16.992;2023-06-10T09:01:16;35;30;21
57049;PMS7003;42935;50.966;16.992;2023-06-10T09:04:34;33;29;21
57049;PMS7003;42935;50.966;16.992;2023-06-10T09:07:52;31;28;20
57049;PMS7003;42935;50.966;16.992;2023-06-10T09:11:09;31;28;19
57049;PMS7003;42935;50.966;16.992;2023-06-10T09:14:22;25;24;17
57049;PMS7003;42935;50.966;16.992;2023-06-10T09:17:40;26;25;18
57049;PMS7003;42935;50.966;16.992;2023-06-10T09:21:26;30;25;17
57049;PMS7003;42935;50.966;16.992;2023-06-10T09:25:19;29;25;18
57049;PMS7003;42935;50.966;16.992;2023-06-10T09:28:49;26;25;17
57049;PMS7003;42935;50.966;16.992;2023-06-10T09:32:02;27;25;17
57049;PMS7003;42935;50.966;16.992;2023-06-10T09:35:20;24;23;17
57049;PMS7003;42935;50.966;16.992;2023-06-10T09:38:36;21;19;14
57049;PMS7003;42935;50.966;16.992;2023-06-10T09:42:24;21;20;15
57049;PMS7003;42935;50.966;16.992;2023-06-10T09:45:47;18;17;13
57049;PMS7003;42935;50.966;16.992;2023-06-10T09:49:06;16;15;11
57049;PMS7003;42935;50.966;16.992;2023-06-10T09:52:27;17;15;12
57049;PMS7003;42935;50.966;16.992;2023-06-10T09:56:19;16;15;12
57049;PMS7003;42935;50.966;16.992;2023-06-10T09:59:36;16;16;12
57049;PMS7003;42935;50.966;16.992;2023-06-10T10:02:52;24;20;14
57049;PMS7003;42935;50.966;16.992;2023-06-10T10:06:15;22;21;15
57049;PMS7003;42935;50.966;16.992;2023-06-10T10:09:32;27;24;17
57049;PMS7003;42935;50.966;16.992;2023-06-10T10:12:48;24;24;18
57049;PMS7003;42935;50.966;16.992;2023-06-10T10:16:41;25;20;16
57049;PMS7003;42935;50.966;16.992;2023-06-10T10:20:00;22;20;16
57049;PMS7003;42935;50.966;16.992;2023-06-10T10:23:18;24;24;18
57049;PMS7003;42935;50.966;16.992;2023-06-10T10:26:49;28;26;18
57049;PMS7003;42935;50.966;16.992;2023-06-10T10:30:08;26;24;19
57049;PMS7003;42935;50.966;16.992;2023-06-10T10:33:27;25;23;17
57049;PMS7003;42935;50.966;16.992;2023-06-10T10:36:45;28;26;18
57049;PMS7003;42935;50.966;16.992;2023-06-10T10:40:04;30;26;19
57049;PMS7003;42935;50.966;16.992;2023-06-10T10:43:19;27;25;19
57049;PMS7003;42935;50.966;16.992;2023-06-10T10:46:45;26;25;19
57049;PMS7003;42935;50.966;16.992;2023-06-10T10:50:01;28;25;19
57049;PMS7003;42935;50.966;16.992;2023-06-10T10:53:29;30;27;19
57049;PMS7003;42935;50.966;16.992;2023-06-10T11:00:20;30;27;20
57049;PMS7003;42935;50.966;16.992;2023-06-10T11:03:43;22;21;16
57049;PMS7003;42935;50.966;16.992;2023-06-10T11:07:08;30;27;20
57049;PMS7003;42935;50.966;16.992;2023-06-10T11:17:20;25;24;17
57049;PMS7003;42935;50.966;16.992;2023-06-10T11:24:12;22;19;14
57049;PMS7003;42935;50.966;16.992;2023-06-10T11:27:37;24;23;17
57049;PMS7003;42935;50.966;16.992;2023-06-10T11:30:58;26;25;18
57049;PMS7003;42935;50.966;16.992;2023-06-10T11:34:21;29;26;18
57049;PMS7003;42935;50.966;16.992;2023-06-10T11:37:46;30;27;18
57049;PMS7003;42935;50.966;16.992;2023-06-10T11:41:03;30;28;20
57049;PMS7003;42935;50.966;16.992;2023-06-10T11:44:21;30;27;19
57049;PMS7003;42935;50.966;16.992;2023-06-10T11:51:17;34;29;20
57049;PMS7003;42935;50.966;16.992;2023-06-10T11:54:37;31;28;20
57049;PMS7003;42935;50.966;16.992;2023-06-10T11:57:51;28;25;18
57049;PMS7003;42935;50.966;16.992;2023-06-10T12:01:13;24;22;17
57049;PMS7003;42935;50.966;16.992;2023-06-10T12:04:33;27;26;18
57049;PMS7003;42935;50.966;16.992;2023-06-10T12:08:07;25;23;17
57049;PMS7003;42935;50.966;16.992;2023-06-10T12:11:19;25;23;19
57049;PMS7003;42935;50.966;16.992;2023-06-10T12:21:40;26;24;17
57049;PMS7003;42935;50.966;16.992;2023-06-10T12:25:05;28;24;16
57049;PMS7003;42935;50.966;16.992;2023-06-10T12:28:21;22;21;17
57049;PMS7003;42935;50.966;16.992;2023-06-10T12:35:04;24;21;16
57049;PMS7003;42935;50.966;16.992;2023-06-10T12:38:25;25;22;16
57049;PMS7003;42935;50.966;16.992;2023-06-10T12:41:47;23;22;17
57049;PMS7003;42935;50.966;16.992;2023-06-10T12:45:09;22;22;16
57049;PMS7003;42935;50.966;16.992;2023-06-10T12:48:34;25;24;17
57049;PMS7003;42935;50.966;16.992;2023-06-10T12:51:54;25;23;18
57049;PMS7003;42935;50.966;16.992;2023-06-10T12:55:15;28;24;18
57049;PMS7003;42935;50.966;16.992;2023-06-10T12:58:30;26;23;17
57049;PMS7003;42935;50.966;16.992;2023-06-10T13:01:51;21;20;16
57049;PMS7003;42935;50.966;16.992;2023-06-10T13:05:09;23;23;18
57049;PMS7003;42935;50.966;16.992;2023-06-10T13:08:21;23;22;16
57049;PMS7003;42935;50.966;16.992;2023-06-10T13:11:43;24;24;17
57049;PMS7003;42935;50.966;16.992;2023-06-10T13:15:02;23;21;17
57049;PMS7003;42935;50.966;16.992;2023-06-10T13:18:19;24;23;17
57049;PMS7003;42935;50.966;16.992;2023-06-10T13:21:34;24;22;18
57049;PMS7003;42935;50.966;16.992;2023-06-10T13:24:54;23;22;18
57049;PMS7003;42935;50.966;16.992;2023-06-10T13:28:08;21;21;16
57049;PMS7003;42935;50.966;16.992;2023-06-10T13:31:24;21;19;16
57049;PMS7003;42935;50.966;16.992;2023-06-10T13:34:39;22;19;16
57049;PMS7003;42935;50.966;16.992;2023-06-10T13:38:00;20;19;16
57049;PMS7003;42935;50.966;16.992;2023-06-10T13:41:16;16;15;12
57049;PMS7003;42935;50.966;16.992;2023-06-10T13:44:34;13;13;9
57049;PMS7003;42935;50.966;16.992;2023-06-10T13:47:53;16;15;12
57049;PMS7003;42935;50.966;16.992;2023-06-10T13:51:09;12;12;9
57049;PMS7003;42935;50.966;16.992;2023-06-10T13:54:27;11;10;9
57049;PMS7003;42935;50.966;16.992;2023-06-10T13:57:40;13;12;10
57049;PMS7003;42935;50.966;16.992;2023-06-10T14:00:57;13;13;10
57049;PMS7003;42935;50.966;16.992;2023-06-10T14:04:09;13;12;10
57049;PMS7003;42935;50.966;16.992;2023-06-10T14:07:22;13;11;10
57049;PMS7003;42935;50.966;16.992;2023-06-10T14:10:38;11;11;9
57049;PMS7003;42935;50.966;16.992;2023-06-10T14:13:55;13;11;9
57049;PMS7003;42935;50.966;16.992;2023-06-10T14:17:10;13;12;9
57049;PMS7003;42935;50.966;16.992;2023-06-10T14:20:25;10;9;7
57049;PMS7003;42935;50.966;16.992;2023-06-10T14:23:45;11;11;8
57049;PMS7003;42935;50.966;16.992;2023-06-10T14:26:59;11;10;8
57049;PMS7003;42935;50.966;16.992;2023-06-10T14:30:17;9;9;7
57049;PMS7003;42935;50.966;16.992;2023-06-10T14:33:31;10;9;7
57049;PMS7003;42935;50.966;16.992;2023-06-10T14:36:47;11;10;7
57049;PMS7003;42935;50.966;16.992;2023-06-10T14:40:02;13;11;9
57049;PMS7003;42935;50.966;16.992;2023-06-10T14:43:20;8;8;8
57049;PMS7003;42935;50.966;16.992;2023-06-10T14:46:38;10;9;7
57049;PMS7003;42935;50.966;16.992;2023-06-10T14:49:59;9;8;6
57049;PMS7003;42935;50.966;16.992;2023-06-10T14:53:18;9;8;6
57049;PMS7003;42935;50.966;16.992;2023-06-10T14:56:40;10;9;7
57049;PMS7003;42935;50.966;16.992;2023-06-10T14:59:59;8;8;6
57049;PMS7003;42935;50.966;16.992;2023-06-10T15:03:18;8;7;6
57049;PMS7003;42935;50.966;16.992;2023-06-10T15:06:35;7;7;5
57049;PMS7003;42935;50.966;16.992;2023-06-10T15:09:57;8;7;6
57049;PMS7003;42935;50.966;16.992;2023-06-10T15:13:16;9;8;6
57049;PMS7003;42935;50.966;16.992;2023-06-10T15:16:31;7;7;6
57049;PMS7003;42935;50.966;16.992;2023-06-10T15:19:57;18;16;10
57049;PMS7003;42935;50.966;16.992;2023-06-10T15:23:14;11;10;8
57049;PMS7003;42935;50.966;16.992;2023-06-10T15:26:29;9;7;6
57049;PMS7003;42935;50.966;16.992;2023-06-10T15:29:51;7;7;6
57049;PMS7003;42935;50.966;16.992;2023-06-10T15:33:08;6;6;5
57049;PMS7003;42935;50.966;16.992;2023-06-10T15:36:29;7;6;5
57049;PMS7003;42935;50.966;16.992;2023-06-10T15:39:51;22;16;9
57049;PMS7003;42935;50.966;16.992;2023-06-10T15:43:06;9;8;6
57049;PMS7003;42935;50.966;16.992;2023-06-10T15:46:27;12;11;8
57049;PMS7003;42935;50.966;16.992;2023-06-10T15:49:46;17;16;12
57049;PMS7003;42935;50.966;16.992;2023-06-10T15:53:06;7;7;6
57049;PMS7003;42935;50.966;16.992;2023-06-10T15:56:31;81;76;63
57049;PMS7003;42935;50.966;16.992;2023-06-10T15:59:48;16;13;10
57049;PMS7003;42935;50.966;16.992;2023-06-10T16:03:05;7;6;4
57049;PMS7003;42935;50.966;16.992;2023-06-10T16:06:20;9;6;5
57049;PMS7003;42935;50.966;16.992;2023-06-10T16:09:37;8;7;6
57049;PMS7003;42935;50.966;16.992;2023-06-10T16:12:54;10;9;7
57049;PMS7003;42935;50.966;16.992;2023-06-10T16:16:07;8;7;6
57049;PMS7003;42935;50.966;16.992;2023-06-10T16:19:25;9;9;6
57049;PMS7003;42935;50.966;16.992;2023-06-10T16:22:44;9;8;6
57049;PMS7003;42935;50.966;16.992;2023-06-10T16:26:00;11;9;7
57049;PMS7003;42935;50.966;16.992;2023-06-10T16:29:18;10;9;7
57049;PMS7003;42935;50.966;16.992;2023-06-10T16:32:37;10;9;7
57049;PMS7003;42935;50.966;16.992;2023-06-10T16:35:55;9;8;6
57049;PMS7003;42935;50.966;16.992;2023-06-10T16:39:12;7;7;6
57049;PMS7003;42935;50.966;16.992;2023-06-10T16:42:29;9;8;6
57049;PMS7003;42935;50.966;16.992;2023-06-10T16:45:46;6;6;5
57049;PMS7003;42935;50.966;16.992;2023-06-10T16:49:07;8;6;5
57049;PMS7003;42935;50.966;16.992;2023-06-10T16:52:20;6;5;4
57049;PMS7003;42935;50.966;16.992;2023-06-10T16:55:35;6;6;5
57049;PMS7003;42935;50.966;16.992;2023-06-10T16:58:54;9;7;5
57049;PMS7003;42935;50.966;16.992;2023-06-10T17:02:15;6;6;5
57049;PMS7003;42935;50.966;16.992;2023-06-10T17:05:36;7;7;5
57049;PMS7003;42935;50.966;16.992;2023-06-10T17:08:53;7;7;5
57049;PMS7003;42935;50.966;16.992;2023-06-10T17:12:12;7;6;5
57049;PMS7003;42935;50.966;16.992;2023-06-10T17:15:29;8;7;5
57049;PMS7003;42935;50.966;16.992;2023-06-10T17:18:46;7;6;5
57049;PMS7003;42935;50.966;16.992;2023-06-10T17:22:03;8;6;5
57049;PMS7003;42935;50.966;16.992;2023-06-10T17:25:21;8;7;6
57049;PMS7003;42935;50.966;16.992;2023-06-10T17:28:41;9;7;5
57049;PMS7003;42935;50.966;16.992;2023-06-10T17:32:02;9;9;6
57049;PMS7003;42935;50.966;16.992;2023-06-10T17:35:20;11;6;4
57049;PMS7003;42935;50.966;16.992;2023-06-10T17:38:37;9;7;6
57049;PMS7003;42935;50.966;16.992;2023-06-10T17:41:54;9;6;5
57049;PMS7003;42935;50.966;16.992;2023-06-10T17:45:11;8;5;5
57049;PMS7003;42935;50.966;16.992;2023-06-10T17:48:28;10;7;6
57049;PMS7003;42935;50.966;16.992;2023-06-10T17:51:45;7;6;5
57049;PMS7003;42935;50.966;16.992;2023-06-10T17:54:58;9;7;6
57049;PMS7003;42935;50.966;16.992;2023-06-10T17:58:11;7;7;6
57049;PMS7003;42935;50.966;16.992;2023-06-10T18:01:28;6;6;5
57049;PMS7003;42935;50.966;16.992;2023-06-10T18:04:45;7;7;6
57049;PMS7003;42935;50.966;16.992;2023-06-10T18:08:02;48;29;16
57049;PMS7003;42935;50.966;16.992;2023-06-10T18:11:19;8;7;6
57049;PMS7003;42935;50.966;16.992;2023-06-10T18:14:33;8;7;5
57049;PMS7003;42935;50.966;16.992;2023-06-10T18:18:20;9;8;6
57049;PMS7003;42935;50.966;16.992;2023-06-10T18:21:37;7;7;5
57049;PMS7003;42935;50.966;16.992;2023-06-10T18:24:56;7;6;5
57049;PMS7003;42935;50.966;16.992;2023-06-10T18:28:16;9;7;5
57049;PMS7003;42935;50.966;16.992;2023-06-10T18:31:33;7;7;5
57049;PMS7003;42935;50.966;16.992;2023-06-10T18:34:50;12;9;6
57049;PMS7003;42935;50.966;16.992;2023-06-10T18:38:03;8;6;5
57049;PMS7003;42935;50.966;16.992;2023-06-10T18:41:28;10;9;6
57049;PMS7003;42935;50.966;16.992;2023-06-10T18:44:45;10;9;7
57049;PMS7003;42935;50.966;16.992;2023-06-10T18:48:01;12;8;6
57049;PMS7003;42935;50.966;16.992;2023-06-10T18:51:18;8;8;6
57049;PMS7003;42935;50.966;16.992;2023-06-10T18:54:35;10;7;5
57049;PMS7003;42935;50.966;16.992;2023-06-10T18:57:52;9;7;6
57049;PMS7003;42935;50.966;16.992;2023-06-10T19:01:16;11;10;6
57049;PMS7003;42935;50.966;16.992;2023-06-10T19:04:40;8;8;6
57049;PMS7003;42935;50.966;16.992;2023-06-10T19:07:59;8;7;6
57049;PMS7003;42935;50.966;16.992;2023-06-10T19:11:16;9;8;6
57049;PMS7003;42935;50.966;16.992;2023-06-10T19:14:34;9;8;6
57049;PMS7003;42935;50.966;16.992;2023-06-10T19:17:55;9;9;7
57049;PMS7003;42935;50.966;16.992;2023-06-10T19:21:12;12;9;6
57049;PMS7003;42935;50.966;16.992;2023-06-10T19:24:33;10;9;7
57049;PMS7003;42935;50.966;16.992;2023-06-10T19:27:48;10;9;6
57049;PMS7003;42935;50.966;16.992;2023-06-10T19:31:03;13;11;8
57049;PMS7003;42935;50.966;16.992;2023-06-10T19:34:20;13;11;8
57049;PMS7003;42935;50.966;16.992;2023-06-10T19:37:35;12;9;6
57049;PMS7003;42935;50.966;16.992;2023-06-10T19:40:52;13;10;7
57049;PMS7003;42935;50.966;16.992;2023-06-10T19:44:09;14;12;8
57049;PMS7003;42935;50.966;16.992;2023-06-10T19:47:27;12;10;8
57049;PMS7003;42935;50.966;16.992;2023-06-10T19:50:46;15;11;8
57049;PMS7003;42935;50.966;16.992;2023-06-10T19:54:04;14;10;8
57049;PMS7003;42935;50.966;16.992;2023-06-10T19:57:21;15;13;11
57049;PMS7003;42935;50.966;16.992;2023-06-10T20:00:37;16;12;8
57049;PMS7003;42935;50.966;16.992;2023-06-10T20:03:54;10;9;7
57049;PMS7003;42935;50.966;16.992;2023-06-10T20:07:07;13;10;7
57049;PMS7003;42935;50.966;16.992;2023-06-10T20:10:24;10;9;8
57049;PMS7003;42935;50.966;16.992;2023-06-10T20:13:43;25;21;14
57049;PMS7003;42935;50.966;16.992;2023-06-10T20:17:00;14;12;9
57049;PMS7003;42935;50.966;16.992;2023-06-10T20:20:15;14;11;9
57049;PMS7003;42935;50.966;16.992;2023-06-10T20:23:28;11;10;8
57049;PMS7003;42935;50.966;16.992;2023-06-10T20:26:45;12;10;7
57049;PMS7003;42935;50.966;16.992;2023-06-10T20:30:00;14;11;9
57049;PMS7003;42935;50.966;16.992;2023-06-10T20:33:17;12;10;7
57049;PMS7003;42935;50.966;16.992;2023-06-10T20:36:31;15;10;7
57049;PMS7003;42935;50.966;16.992;2023-06-10T20:39:48;10;9;7
57049;PMS7003;42935;50.966;16.992;2023-06-10T20:43:09;13;11;8
57049;PMS7003;42935;50.966;16.992;2023-06-10T20:46:26;11;10;8
57049;PMS7003;42935;50.966;16.992;2023-06-10T20:49:45;15;9;6
57049;PMS7003;42935;50.966;16.992;2023-06-10T20:53:02;12;9;7
57049;PMS7003;42935;50.966;16.992;2023-06-10T20:56:19;11;9;7
57049;PMS7003;42935;50.966;16.992;2023-06-10T20:59:35;9;9;7
57049;PMS7003;42935;50.966;16.992;2023-06-10T21:02:50;11;10;8
57049;PMS7003;42935;50.966;16.992;2023-06-10T21:06:05;13;11;9
57049;PMS7003;42935;50.966;16.992;2023-06-10T21:09:30;14;12;9
57049;PMS7003;42935;50.966;16.992;2023-06-10T21:12:47;12;11;8
57049;PMS7003;42935;50.966;16.992;2023-06-10T21:16:05;13;9;7
57049;PMS7003;42935;50.966;16.992;2023-06-10T21:19:22;14;10;7
57049;PMS7003;42935;50.966;16.992;2023-06-10T21:22:43;11;10;7
57049;PMS7003;42935;50.966;16.992;2023-06-10T21:26:00;9;9;7
57049;PMS7003;42935;50.966;16.992;2023-06-10T21:29:18;13;11;8
57049;PMS7003;42935;50.966;16.992;2023-06-10T21:32:35;11;9;6
57049;PMS7003;42935;50.966;16.992;2023-06-10T21:35:50;12;9;7
57049;PMS7003;42935;50.966;16.992;2023-06-10T21:39:07;10;9;7
57049;PMS7003;42935;50.966;16.992;2023-06-10T21:42:22;10;9;7
57049;PMS7003;42935;50.966;16.992;2023-06-10T21:45:37;9;9;7
57049;PMS7003;42935;50.966;16.992;2023-06-10T21:48:55;12;10;7
57049;PMS7003;42935;50.966;16.992;2023-06-10T21:52:12;11;9;7